KPHT

Henry County Airport

Paris, Tennessee, USA
METAR KPHT 220455Z AUTO 18004KT 10SM BKN090 20/19 A2978 RMK A01
Observed Flight Rules
Jun-22 @ 04:55 UTC (41 minutes ago) Visual Flight Rules
Wind Visibility Clouds
180° at 4 knots 10 miles
  • Broken at 9,000' AGL
Temperatures Readings
Current 20°C / 68°F
Dewpoint 19°C / 66°F
Humidity 94%
Altimeter 29.78" Hg
Pressure 1008 hPa
Elevation 177
METAR KPHT 220455Z AUTO 18004KT 10SM BKN090 20/19 A2978 RMK A01
Observed Flight Rules
Jun-22 @ 04:55 UTC
(41 minutes ago)
VFR
Wind Visibility
180° at 4 knots 10 miles
Clouds
  • Broken at 9,000' AGL
Temperature Dewpoint
20°C / 68°F 19°C / 66°F
Humidity Altimeter Pressure
94% 29.78" Hg 1008 hPa